Time;durP1;ratioP1;P1;durP2;ratioP2;P2;SDS_P1;SDS_P2;PMS_P1;PMS_P2;Temp;Humidity;BMP_temperature;BMP_pressure;BME280_temperature;BME280_humidity;BME280_pressure;Samples;Min_cycle;Max_cycle;Signal;HPM_P1;HPM_P2
2022/09/27 00:01:36;;;;;;;;;;;;;;;-142.75;100.00;76082.13;5037317;28;19919;-68
2022/09/27 00:04:01;;;;;;;;;;;;;;;-142.75;100.00;76072.31;5055059;28;20436;-67
2022/09/27 00:06:27;;;;;;;;;;;;;;;-142.75;100.00;76082.13;5055027;28;20344;-68
2022/09/27 00:08:53;;;;;;;;;;;;;;;-142.75;100.00;76074.25;5037001;28;20000;-68
2022/09/27 00:11:26;;;;;;;;;;;;;;;-142.75;100.00;76090.00;5037093;28;19948;-68
2022/09/27 00:13:54;;;;;;;;;;;;;;;-142.75;100.00;76090.00;5037037;28;19960;-70
2022/09/27 00:16:20;;;;;;;;;;;;;;;-142.75;100.00;76093.94;5054829;28;19913;-68
2022/09/27 00:18:45;;;;;;;;;;;;;;;-142.75;100.00;76097.88;5054510;28;19927;-67
2022/09/27 00:21:12;;;;;;;;;;;;;;;-142.75;100.00;76097.88;5055017;28;19912;-68
2022/09/27 00:23:37;;;;;;;;;;;;;;;-142.75;100.00;76097.88;5036846;28;19913;-68
2022/09/27 00:26:03;;;;;;;;;;;;;;;-142.75;100.00;76109.69;5036920;28;19920;-68
2022/09/27 00:28:29;;;;;;;;;;;;;;;-142.75;100.00;76121.50;5054424;28;19920;-67
2022/09/27 00:30:55;;;;;;;;;;;;;;;-142.75;100.00;76097.88;5054633;28;19913;-69
2022/09/27 00:33:20;;;;;;;;;;;;;;;-142.75;100.00;76109.69;5036681;28;20413;-68
2022/09/27 00:35:45;;;;;;;;;;;;;;;-142.75;100.00;76113.63;5054562;28;20395;-68
2022/09/27 00:38:11;;;;;;;;;;;;;;;-142.75;100.00;76113.63;5068536;28;20015;-68
2022/09/27 00:40:37;;;;;;;;;;;;;;;-142.75;100.00;76109.69;5065502;28;20386;-68
2022/09/27 00:43:08;;;;;;;;;;;;;;;-142.75;100.00;76111.66;5063298;28;19912;-68
2022/09/27 00:45:33;;;;;;;;;;;;;;;-142.75;100.00;76113.63;5063232;28;19912;-68
2022/09/27 00:48:00;;;;;;;;;;;;;;;-142.75;100.00;76125.44;5045677;28;19920;-68
2022/09/27 00:50:28;;;;;;;;;;;;;;;-142.75;100.00;76139.22;5070555;28;19919;-68
2022/09/27 00:52:58;;;;;;;;;;;;;;;-142.75;100.00;76154.97;5093732;22;19917;-70
2022/09/27 00:55:26;;;;;;;;;;;;;;;-142.75;100.00;76145.13;5071563;28;19978;-69
2022/09/27 00:57:51;;;;;;;;;;;;;;;-142.75;100.00;76137.25;5054235;28;19913;-70
2022/09/27 01:00:17;;;;;;;;;;;;;;;-142.75;100.00;76141.19;5074051;28;19938;-69
2022/09/27 01:02:48;;;;;;;;;;;;;;;-142.75;100.00;76121.50;5074040;28;20384;-70
2022/09/27 01:05:14;;;;;;;;;;;;;;;-142.75;100.00;76131.34;5073965;28;19916;-69
2022/09/27 01:07:40;;;;;;;;;;;;;;;-142.75;100.00;76129.38;5073595;28;19919;-69
2022/09/27 01:10:06;;;;;;;;;;;;;;;-142.75;100.00;76133.31;5056024;28;19913;-69
2022/09/27 01:12:54;;;;;;;;;;;;;;;-142.75;100.00;76131.34;5055965;28;20441;-70
2022/09/27 01:15:25;;;;;;;;;;;;;;;-142.75;100.00;76123.47;5073859;28;19912;-70
2022/09/27 01:18:04;;;;;;;;;;;;;;;-142.75;100.00;76129.38;5073441;28;19960;-70
2022/09/27 01:20:30;;;;;;;;;;;;;;;-142.75;100.00;76141.19;5073864;28;20407;-70
2022/09/27 01:23:13;;;;;;;;;;;;;;;-142.75;100.00;76141.19;5073603;28;19944;-70
2022/09/27 01:26:03;;;;;;;;;;;;;;;-142.75;100.00;76133.31;5073642;28;19913;-70
2022/09/27 01:28:37;;;;;;;;;;;;;;;-142.75;100.00;76137.25;5073273;28;19912;-70
2022/09/27 01:31:12;;;;;;;;;;;;;;;-142.75;100.00;76145.13;5073515;28;19912;-70
2022/09/27 01:33:43;;;;;;;;;;;;;;;-142.75;100.00;76139.22;5073443;28;19920;-69
2022/09/27 01:36:15;;;;;;;;;;;;;;;-142.75;100.00;76139.22;5073383;28;19919;-69
2022/09/27 01:38:52;;;;;;;;;;;;;;;-142.75;100.00;76123.47;5072911;28;19916;-69
2022/09/27 01:41:47;;;;;;;;;;;;;;;-142.75;100.00;76131.34;5073365;28;19912;-70
2022/09/27 01:44:16;;;;;;;;;;;;;;;-142.75;100.00;76129.38;5051431;28;19912;-70
2022/09/27 01:46:45;;;;;;;;;;;;;;;-142.75;100.00;76137.25;5072924;28;19919;-70
2022/09/27 01:49:15;;;;;;;;;;;;;;;-142.75;100.00;76145.13;5073057;28;20005;-70
2022/09/27 01:51:51;;;;;;;;;;;;;;;-142.75;100.00;76143.16;5055514;28;20390;-69
2022/09/27 01:54:19;;;;;;;;;;;;;;;-142.75;100.00;76137.25;5072935;28;20013;-69
2022/09/27 01:56:50;;;;;;;;;;;;;;;-142.75;100.00;76135.28;5072738;28;20486;-70
2022/09/27 01:59:16;;;;;;;;;;;;;;;-142.75;100.00;76133.31;5072843;28;19917;-70
2022/09/27 02:01:43;;;;;;;;;;;;;;;-142.75;100.00;76119.53;5072821;28;19919;-69
2022/09/27 02:04:10;;;;;;;;;;;;;;;-142.75;100.00;76119.53;5072732;28;20294;-69
2022/09/27 02:06:40;;;;;;;;;;;;;;;-142.75;100.00;76107.72;5072277;28;19913;-69
2022/09/27 02:09:14;;;;;;;;;;;;;;;-142.75;100.00;76105.75;5072838;28;20015;-69
2022/09/27 02:11:44;;;;;;;;;;;;;;;-142.75;100.00;76103.78;5072712;28;19919;-69
2022/09/27 02:14:17;;;;;;;;;;;;;;;-142.75;100.00;76090.00;5072432;28;20343;-69
2022/09/27 02:16:50;;;;;;;;;;;;;;;-142.75;100.00;76082.13;5072390;28;19995;-69
2022/09/27 02:19:27;;;;;;;;;;;;;;;-142.75;100.00;76093.94;5054559;28;20389;-70
2022/09/27 02:21:58;;;;;;;;;;;;;;;-142.75;100.00;76086.06;5072571;28;20007;-70
2022/09/27 02:24:29;;;;;;;;;;;;;;;-142.75;100.00;76095.91;5072404;28;20274;-70
2022/09/27 02:27:00;;;;;;;;;;;;;;;-142.75;100.00;76105.75;5054191;28;19912;-69
2022/09/27 02:29:33;;;;;;;;;;;;;;;-142.75;100.00;76101.81;5072429;28;19920;-70
2022/09/27 02:31:58;;;;;;;;;;;;;;;-142.75;100.00;76113.63;5072480;28;20003;-70
2022/09/27 02:34:26;;;;;;;;;;;;;;;-142.75;100.00;76153.00;5072401;28;19962;-70
2022/09/27 02:36:52;;;;;;;;;;;;;;;-142.75;100.00;76174.66;5071992;28;19916;-69
2022/09/27 02:39:18;;;;;;;;;;;;;;;-142.75;100.00;76190.41;5072300;28;19975;-69
2022/09/27 02:41:43;;;;;;;;;;;;;;;-142.75;100.00;76204.16;5054312;28;19963;-69
2022/09/27 02:44:10;;;;;;;;;;;;;;;-142.75;100.00;76219.91;5072282;28;19965;-69
2022/09/27 02:46:47;;;;;;;;;;;;;;;-142.75;100.00;76212.03;5072013;28;19912;-69
2022/09/27 02:49:12;;;;;;;;;;;;;;;-142.75;100.00;76202.19;5072309;28;20042;-70
2022/09/27 02:51:40;;;;;;;;;;;;;;;-142.75;100.00;76192.38;5072136;28;19962;-69
2022/09/27 02:54:05;;;;;;;;;;;;;;;-142.75;100.00;76182.53;5054106;28;19917;-70
2022/09/27 02:56:39;;;;;;;;;;;;;;;-142.75;100.00;76174.66;5072003;28;19919;-70
2022/09/27 02:59:13;;;;;;;;;;;;;;;-142.75;100.00;76176.63;5054131;28;20397;-69
2022/09/27 03:01:57;;;;;;;;;;;;;;;-142.75;100.00;76180.56;5072171;28;20274;-69
2022/09/27 03:04:24;;;;;;;;;;;;;;;-142.75;100.00;76180.56;5072022;28;20278;-69
2022/09/27 03:06:50;;;;;;;;;;;;;;;-142.75;100.00;76184.50;5071759;28;19913;-70
2022/09/27 03:09:22;;;;;;;;;;;;;;;-142.75;100.00;76170.72;5072078;28;20006;-70
2022/09/27 03:11:48;;;;;;;;;;;;;;;-142.75;100.00;76151.03;5053973;28;20054;-70
2022/09/27 03:14:13;;;;;;;;;;;;;;;-142.75;100.00;76147.09;5071985;28;19947;-70
2022/09/27 03:16:39;;;;;;;;;;;;;;;-142.75;100.00;76149.06;5072004;28;20017;-69
2022/09/27 03:19:04;;;;;;;;;;;;;;;-142.75;100.00;76145.13;5075997;28;20392;-69
2022/09/27 03:21:30;;;;;;;;;;;;;;;-142.75;100.00;76143.16;5076015;28;19913;-70
2022/09/27 03:23:55;;;;;;;;;;;;;;;-142.75;100.00;76145.13;5075967;28;19912;-70
2022/09/27 03:26:20;;;;;;;;;;;;;;;-142.75;100.00;76149.06;5076041;28;19916;-70
2022/09/27 03:28:45;;;;;;;;;;;;;;;-142.75;100.00;76131.34;5075677;28;19995;-69
2022/09/27 03:31:11;;;;;;;;;;;;;;;-142.75;100.00;76139.22;5075917;28;20251;-69
2022/09/27 03:33:36;;;;;;;;;;;;;;;-142.75;100.00;76137.25;5075884;28;19947;-69
2022/09/27 03:36:03;;;;;;;;;;;;;;;-142.75;100.00;76129.38;5075750;28;20002;-70
2022/09/27 03:38:28;;;;;;;;;;;;;;;-142.75;100.00;76149.06;5075235;28;19917;-70
2022/09/27 03:40:53;;;;;;;;;;;;;;;-142.75;100.00;76145.13;5057670;28;20267;-70
2022/09/27 03:43:18;;;;;;;;;;;;;;;-142.75;100.00;76147.09;5075510;28;20031;-70
2022/09/27 03:45:44;;;;;;;;;;;;;;;-142.75;100.00;76149.06;5075547;28;19912;-70
2022/09/27 03:48:09;;;;;;;;;;;;;;;-142.75;100.00;76164.81;5075142;28;19981;-69
2022/09/27 03:50:35;;;;;;;;;;;;;;;-142.75;100.00;76176.63;5075510;28;19912;-70
2022/09/27 03:53:00;;;;;;;;;;;;;;;-142.75;100.00;76180.56;5075237;28;19924;-69
2022/09/27 03:55:25;;;;;;;;;;;;;;;-142.75;100.00;76176.63;5057347;28;19962;-70
2022/09/27 03:57:50;;;;;;;;;;;;;;;-142.75;100.00;76184.50;5074986;28;19942;-70
2022/09/27 04:00:16;;;;;;;;;;;;;;;-142.75;100.00;76204.16;5075090;28;19943;-69
2022/09/27 04:02:42;;;;;;;;;;;;;;;-142.75;100.00;76192.38;5075103;28;19919;-70
2022/09/27 04:05:08;;;;;;;;;;;;;;;-142.75;100.00;76168.75;5057196;28;20297;-70
2022/09/27 04:07:33;;;;;;;;;;;;;;;-142.75;100.00;76160.88;5056906;28;19916;-69
2022/09/27 04:09:58;;;;;;;;;;;;;;;-142.75;100.00;76156.94;5074991;28;20386;-70
2022/09/27 04:12:24;;;;;;;;;;;;;;;-142.75;100.00;76180.56;5057057;28;19912;-70
2022/09/27 04:14:49;;;;;;;;;;;;;;;-142.75;100.00;76174.66;5074826;28;20042;-70
2022/09/27 04:17:14;;;;;;;;;;;;;;;-142.75;100.00;76172.69;5074647;28;19935;-70
2022/09/27 04:19:39;;;;;;;;;;;;;;;-142.75;100.00;76180.56;5074821;28;20378;-69
2022/09/27 04:22:04;;;;;;;;;;;;;;;-142.75;100.00;76192.38;5074887;28;19912;-70
2022/09/27 04:24:30;;;;;;;;;;;;;;;-142.75;100.00;76194.34;5074714;28;19920;-70
2022/09/27 04:26:55;;;;;;;;;;;;;;;-142.75;100.00;76192.38;5074533;28;19912;-69
2022/09/27 04:29:21;;;;;;;;;;;;;;;-142.75;100.00;76184.50;5074476;28;19912;-70
2022/09/27 04:31:46;;;;;;;;;;;;;;;-142.75;100.00;76176.63;5074650;28;19913;-70
2022/09/27 04:34:11;;;;;;;;;;;;;;;-142.75;100.00;76176.63;5074568;28;19912;-70
2022/09/27 04:36:37;;;;;;;;;;;;;;;-142.75;100.00;76192.38;5074328;28;19913;-70
2022/09/27 04:39:03;;;;;;;;;;;;;;;-142.75;100.00;76200.25;5061891;28;20015;-69
2022/09/27 04:41:29;;;;;;;;;;;;;;;-142.75;100.00;76196.31;5043635;28;20008;-70
2022/09/27 04:43:54;;;;;;;;;;;;;;;-142.75;100.00;76200.25;5048492;28;20474;-70
2022/09/27 04:46:20;;;;;;;;;;;;;;;-142.75;100.00;76188.44;5054342;28;19913;-70
2022/09/27 04:48:45;;;;;;;;;;;;;;;-142.75;100.00;76184.50;5054113;28;19917;-70
2022/09/27 04:51:11;;;;;;;;;;;;;;;-142.75;100.00;76176.63;5054278;28;19924;-70
2022/09/27 04:53:36;;;;;;;;;;;;;;;-142.75;100.00;76184.50;5054098;28;19978;-70
2022/09/27 04:56:04;;;;;;;;;;;;;;;-142.75;100.00;76184.50;5054258;28;20401;-69
2022/09/27 04:58:30;;;;;;;;;;;;;;;-142.75;100.00;76198.28;5053898;28;19917;-70
2022/09/27 05:00:55;;;;;;;;;;;;;;;-142.75;100.00;76198.28;5054037;28;19919;-70
2022/09/27 05:03:21;;;;;;;;;;;;;;;-142.75;100.00;76208.09;5054072;28;19921;-70
2022/09/27 05:05:46;;;;;;;;;;;;;;;-142.75;100.00;76200.25;5054047;28;19936;-69
2022/09/27 05:08:12;;;;;;;;;;;;;;;-142.75;100.00;76212.03;5053651;28;19936;-70
2022/09/27 05:10:37;;;;;;;;;;;;;;;-142.75;100.00;76231.72;5053981;28;20378;-70
2022/09/27 05:13:02;;;;;;;;;;;;;;;-142.75;100.00;76233.69;5053827;28;19913;-70
2022/09/27 05:15:27;;;;;;;;;;;;;;;-142.75;100.00;76241.56;5053788;28;19924;-70
2022/09/27 05:17:53;;;;;;;;;;;;;;;-142.75;100.00;76243.53;5053630;28;19912;-70
2022/09/27 05:20:19;;;;;;;;;;;;;;;-142.75;100.00;76241.56;5053747;28;19944;-70
2022/09/27 05:22:44;;;;;;;;;;;;;;;-142.75;100.00;76229.75;5053599;28;19948;-70
2022/09/27 05:25:09;;;;;;;;;;;;;;;-142.75;100.00;76235.66;5053695;28;20367;-70
2022/09/27 05:27:35;;;;;;;;;;;;;;;-142.75;100.00;76241.56;5053353;28;19935;-70
2022/09/27 05:30:00;;;;;;;;;;;;;;;-142.75;100.00;76227.78;5053481;28;19916;-70
2022/09/27 05:32:26;;;;;;;;;;;;;;;-142.75;100.00;76229.75;5035644;28;19938;-70
2022/09/27 05:34:52;;;;;;;;;;;;;;;-142.75;100.00;76223.84;5053660;28;20310;-70
2022/09/27 05:37:18;;;;;;;;;;;;;;;-142.75;100.00;76217.94;5053176;28;20306;-70
2022/09/27 05:39:43;;;;;;;;;;;;;;;-142.75;100.00;76227.78;5052689;28;19917;-69
2022/09/27 05:42:09;;;;;;;;;;;;;;;-142.75;100.00;76223.84;5053338;28;19913;-70
2022/09/27 05:44:35;;;;;;;;;;;;;;;-142.75;100.00;76210.06;5053175;28;19913;-70
2022/09/27 05:47:03;;;;;;;;;;;;;;;-142.75;100.00;76208.09;5052974;28;20401;-70
2022/09/27 05:49:28;;;;;;;;;;;;;;;-142.75;100.00;76223.84;5053182;28;19919;-69
2022/09/27 05:51:53;;;;;;;;;;;;;;;-142.75;100.00;76214.00;5035234;28;20011;-70
2022/09/27 05:54:18;;;;;;;;;;;;;;;-142.75;100.00;76229.75;5052431;28;19996;-69
2022/09/27 05:56:43;;;;;;;;;;;;;;;-142.75;100.00;76217.94;5052764;28;19913;-70
2022/09/27 05:59:09;;;;;;;;;;;;;;;-142.75;100.00;76210.06;5052860;28;20011;-70
2022/09/27 06:01:34;;;;;;;;;;;;;;;-142.75;100.00;76198.28;5052953;28;20363;-70
2022/09/27 06:04:00;;;;;;;;;;;;;;;-142.75;100.00;76210.06;5052857;28;19967;-70
2022/09/27 06:06:25;;;;;;;;;;;;;;;-142.75;100.00;76202.19;5052789;28;19939;-69
2022/09/27 06:08:50;;;;;;;;;;;;;;;-142.75;100.00;76206.13;5052553;28;19986;-70
2022/09/27 06:11:16;;;;;;;;;;;;;;;-142.75;100.00;76200.25;5052801;28;20315;-70
2022/09/27 06:13:41;;;;;;;;;;;;;;;-142.75;100.00;76198.28;5052580;28;19919;-70
2022/09/27 06:16:08;;;;;;;;;;;;;;;-142.75;100.00;76196.31;5034829;28;20329;-70
2022/09/27 06:18:34;;;;;;;;;;;;;;;-142.75;100.00;76198.28;5052375;28;19942;-70
2022/09/27 06:20:59;;;;;;;;;;;;;;;-142.75;100.00;76192.38;5052518;28;19913;-70
2022/09/27 06:23:24;;;;;;;;;;;;;;;-142.75;100.00;76196.31;5052505;28;19920;-70
2022/09/27 06:25:50;;;;;;;;;;;;;;;-142.75;100.00;76188.44;5052538;28;19986;-70
2022/09/27 06:28:16;;;;;;;;;;;;;;;-142.75;100.00;76204.16;5052132;28;19913;-70
2022/09/27 06:30:42;;;;;;;;;;;;;;;-142.75;100.00;76198.28;5032178;28;19917;-69
2022/09/27 06:33:10;;;;;;;;;;;;;;;-142.75;100.00;76192.38;5025275;28;19920;-69
2022/09/27 06:35:35;;;;;;;;;;;;;;;-142.75;100.00;76196.31;5044244;28;20348;-69
2022/09/27 06:38:08;;;;;;;;;;;;;;;-142.75;100.00;76186.47;5052145;28;19916;-69
2022/09/27 06:40:34;;;;;;;;;;;;;;;-142.75;100.00;76180.56;5052511;28;20011;-69
2022/09/27 06:43:09;;;;;;;;;;;;;;;-142.75;100.00;76174.66;5046209;28;20023;-69
2022/09/27 06:45:35;;;;;;;;;;;;;;;-142.75;100.00;76178.59;5044819;28;19917;-70
2022/09/27 06:48:01;;;;;;;;;;;;;;;-142.75;100.00;76180.56;5051491;28;19966;-70
2022/09/27 06:50:27;;;;;;;;;;;;;;;-142.75;100.00;76186.47;5047307;28;19921;-70
2022/09/27 06:52:52;;;;;;;;;;;;;;;-142.75;100.00;76196.31;5050697;28;19919;-70
2022/09/27 06:55:17;;;;;;;;;;;;;;;-142.75;100.00;76192.38;5081058;23;19952;-68
2022/09/27 07:00:26;;;;;;;;;;;;;;;-142.75;100.00;76184.50;5063263;28;19940;-68
2022/09/27 07:02:52;;;;;;;;;;;;;;;-142.75;100.00;76186.47;5054791;28;19913;-69
2022/09/27 07:05:18;;;;;;;;;;;;;;;-142.75;100.00;76192.38;5056219;28;19912;-67
2022/09/27 07:07:43;;;;;;;;;;;;;;;-142.75;100.00;76194.34;5069456;28;19917;-68
2022/09/27 07:10:09;;;;;;;;;;;;;;;-142.75;100.00;76196.31;5071522;28;19963;-68
2022/09/27 07:12:35;;;;;;;;;;;;;;;-142.75;100.00;76204.16;5069098;28;19970;-68
2022/09/27 07:15:00;;;;;;;;;;;;;;;-142.75;100.00;76219.91;5066923;28;20019;-67
2022/09/27 07:17:26;;;;;;;;;;;;;;;-142.75;100.00;76239.59;5071220;28;19958;-68
2022/09/27 07:19:51;;;;;;;;;;;;;;;-142.75;100.00;76267.16;5058424;28;19921;-67
2022/09/27 07:22:17;;;;;;;;;;;;;;;-142.75;100.00;76275.03;5068393;28;19912;-68
2022/09/27 07:24:42;;;;;;;;;;;;;;;-142.75;100.00;76294.72;5070133;28;19913;-66
2022/09/27 07:27:07;;;;;;;;;;;;;;;-142.75;100.00;76278.97;5071218;28;19955;-68
2022/09/27 07:29:32;;;;;;;;;;;;;;;-142.75;100.00;76282.91;5071751;28;20270;-68
2022/09/27 07:31:57;;;;;;;;;;;;;;;-142.75;100.00;76275.03;5071364;28;20370;-68
2022/09/27 07:34:23;;;;;;;;;;;;;;;-142.75;100.00;76269.13;5055281;28;19917;-67
2022/09/27 07:36:48;;;;;;;;;;;;;;;-142.75;100.00;76261.25;5050947;28;19994;-68
2022/09/27 07:39:13;;;;;;;;;;;;;;;-142.75;100.00;76267.16;5061144;28;19924;-67
2022/09/27 07:41:41;;;;;;;;;;;;;;;-142.75;100.00;76263.22;5069432;28;19916;-68
2022/09/27 07:44:07;;;;;;;;;;;;;;;-142.75;100.00;76245.50;5069070;28;19963;-68
2022/09/27 07:46:32;;;;;;;;;;;;;;;-142.75;100.00;76243.53;5059889;28;19916;-68
2022/09/27 07:48:58;;;;;;;;;;;;;;;-142.75;100.00;76223.84;5055246;28;20293;-67
2022/09/27 07:51:23;;;;;;;;;;;;;;;-142.75;100.00;76229.75;5057758;28;19932;-69
2022/09/27 07:53:49;;;;;;;;;;;;;;;-142.75;100.00;76219.91;5066930;28;19923;-68
2022/09/27 07:56:14;;;;;;;;;;;;;;;-142.75;100.00;76217.94;5070898;28;19913;-67
2022/09/27 07:58:39;;;;;;;;;;;;;;;-142.75;100.00;76196.31;5070930;28;19917;-67
2022/09/27 08:01:04;;;;;;;;;;;;;;;-142.75;100.00;76184.50;5071168;28;19913;-67
2022/09/27 08:03:30;;;;;;;;;;;;;;;-142.75;100.00;76188.44;5071417;28;19912;-68
2022/09/27 08:05:55;;;;;;;;;;;;;;;-142.75;100.00;76182.53;5074850;28;19917;-68
2022/09/27 08:08:21;;;;;;;;;;;;;;;-142.75;100.00;76176.63;5073104;28;19920;-68
2022/09/27 08:10:46;;;;;;;;;;;;;;;-142.75;100.00;76178.59;5074671;28;20408;-68
2022/09/27 08:13:11;;;;;;;;;;;;;;;-142.75;100.00;76168.75;5074578;28;20263;-68
2022/09/27 08:15:40;;;;;;;;;;;;;;;-142.75;100.00;76172.69;5056346;28;19916;-70
2022/09/27 08:18:06;;;;;;;;;;;;;;;-142.75;100.00;76180.56;5054465;28;19959;-69
2022/09/27 08:20:31;;;;;;;;;;;;;;;-142.75;100.00;76196.31;5068598;28;19999;-68
2022/09/27 08:22:57;;;;;;;;;;;;;;;-142.75;100.00;76204.16;5067568;28;20418;-68
2022/09/27 08:25:24;;;;;;;;;;;;;;;-142.75;100.00;76208.09;5073542;28;21422;-69
2022/09/27 08:27:56;;;;;;;;;;;;;;;-142.75;100.00;76196.31;5074361;28;19951;-67
2022/09/27 08:30:22;;;;;;;;;;;;;;;-142.75;100.00;76202.19;5072938;28;20350;-68
2022/09/27 08:32:47;;;;;;;;;;;;;;;-142.75;100.00;76206.13;5069536;28;19958;-67
2022/09/27 08:35:14;;;;;;;;;;;;;;;-142.75;100.00;76194.34;5068342;28;20374;-67
2022/09/27 08:37:39;;;;;;;;;;;;;;;-142.75;100.00;76204.16;5053376;28;20285;-67
2022/09/27 08:40:05;;;;;;;;;;;;;;;-142.75;100.00;76184.50;5056386;28;19920;-65
2022/09/27 08:42:40;;;;;;;;;;;;;;;-142.75;100.00;76176.63;5074340;28;20432;-67
2022/09/27 08:45:24;;;;;;;;;;;;;;;-142.75;100.00;76190.41;5068081;28;20011;-68
2022/09/27 08:48:00;;;;;;;;;;;;;;;-142.75;100.00;76200.25;5072831;28;20003;-68
2022/09/27 08:50:26;;;;;;;;;;;;;;;-142.75;100.00;76215.97;5073624;28;20356;-68
2022/09/27 08:52:55;;;;;;;;;;;;;;;-142.75;100.00;76210.06;5072720;28;19916;-68
2022/09/27 08:55:21;;;;;;;;;;;;;;;-142.75;100.00;76221.88;5072263;28;20328;-68
2022/09/27 08:57:49;;;;;;;;;;;;;;;-142.75;100.00;76223.84;5067456;28;19920;-69
2022/09/27 09:00:15;;;;;;;;;;;;;;;-142.75;100.00;76227.78;5073701;28;19920;-68
2022/09/27 09:02:40;;;;;;;;;;;;;;;-142.75;100.00;76225.81;5073630;28;19912;-68
2022/09/27 09:05:07;;;;;;;;;;;;;;;-142.75;100.00;76223.84;5073738;28;20381;-69
2022/09/27 09:07:38;;;;;;;;;;;;;;;-142.75;100.00;76219.91;5069870;28;19916;-65
2022/09/27 09:10:12;;;;;;;;;;;;;;;-142.75;100.00;76223.84;5073107;28;20047;-68
2022/09/27 09:12:58;;;;;;;;;;;;;;;-142.75;100.00;76212.03;5056203;28;20396;-68
2022/09/27 09:15:54;;;;;;;;;;;;;;;-142.75;100.00;76194.34;5058293;28;19970;-69
2022/09/27 09:18:20;;;;;;;;;;;;;;;-142.75;100.00;76198.28;5067790;28;19920;-66
2022/09/27 09:20:51;;;;;;;;;;;;;;;-142.75;100.00;76208.09;5067425;28;19939;-68
2022/09/27 09:23:25;;;;;;;;;;;;;;;-142.75;100.00;76188.44;5064063;28;19942;-68
2022/09/27 09:26:00;;;;;;;;;;;;;;;-142.75;100.00;76184.50;5069066;28;19919;-66
2022/09/27 09:28:31;;;;;;;;;;;;;;;-142.75;100.00;76188.44;5064256;28;19982;-69
2022/09/27 09:31:04;;;;;;;;;;;;;;;-142.75;100.00;76166.78;5073091;28;19919;-68
2022/09/27 09:33:34;;;;;;;;;;;;;;;-142.75;100.00;76184.50;5071684;28;19969;-68
2022/09/27 09:36:05;;;;;;;;;;;;;;;-142.75;100.00;76200.25;5072894;28;20500;-67
2022/09/27 09:38:33;;;;;;;;;;;;;;;-142.75;100.00;76196.31;5068923;28;19995;-68
2022/09/27 09:41:02;;;;;;;;;;;;;;;-142.75;100.00;76204.16;5052111;28;19912;-68
2022/09/27 09:43:30;;;;;;;;;;;;;;;-142.75;100.00;76202.19;5053196;28;19913;-68
2022/09/27 09:46:08;;;;;;;;;;;;;;;-142.75;100.00;76204.16;5052048;28;19913;-68
2022/09/27 09:49:06;;;;;;;;;;;;;;;-142.75;100.00;76221.88;5066570;28;19913;-68
2022/09/27 09:51:34;;;;;;;;;;;;;;;-142.75;100.00;76219.91;5053655;28;20386;-67
2022/09/27 09:54:11;;;;;;;;;;;;;;;-142.75;100.00;76225.81;5061418;28;19956;-68
2022/09/27 09:56:44;;;;;;;;;;;;;;;-142.75;100.00;76255.34;5069801;28;20283;-68
2022/09/27 09:59:19;;;;;;;;;;;;;;;-142.75;100.00;76251.41;5072930;28;20313;-68
2022/09/27 10:01:46;;;;;;;;;;;;;;;-142.75;100.00;76273.06;5072922;28;19913;-67
2022/09/27 10:04:23;;;;;;;;;;;;;;;-142.75;100.00;76275.03;5072639;28;20378;-68
2022/09/27 10:06:48;;;;;;;;;;;;;;;-142.75;100.00;76288.81;5072621;28;19912;-67
2022/09/27 10:09:21;;;;;;;;;;;;;;;-142.75;100.00;76302.59;5072751;28;20385;-68
2022/09/27 10:11:47;;;;;;;;;;;;;;;-142.75;100.00;76302.59;5072849;28;20423;-68
2022/09/27 10:14:13;;;;;;;;;;;;;;;-142.75;100.00;76300.63;5069248;28;19916;-68
2022/09/27 10:16:42;;;;;;;;;;;;;;;-142.75;100.00;76306.53;5069318;28;19939;-68
2022/09/27 10:19:08;;;;;;;;;;;;;;;-142.75;100.00;76308.50;5072596;28;20366;-67
2022/09/27 10:21:35;;;;;;;;;;;;;;;-142.75;100.00;76302.59;5072638;28;19913;-67
2022/09/27 10:24:03;;;;;;;;;;;;;;;-142.75;100.00;76290.78;5071107;28;19912;-64
2022/09/27 10:26:29;;;;;;;;;;;;;;;-142.75;100.00;76267.16;5072069;28;19916;-70
2022/09/27 10:28:54;;;;;;;;;;;;;;;-142.75;100.00;76277.00;5072408;28;19977;-68
2022/09/27 10:31:20;;;;;;;;;;;;;;;-142.75;100.00;76286.84;5071151;28;20340;-68
2022/09/27 10:33:56;;;;;;;;;;;;;;;-142.75;100.00;76282.91;5071157;28;19913;-68
2022/09/27 10:36:24;;;;;;;;;;;;;;;-142.75;100.00;76286.84;5071079;28;20398;-68
2022/09/27 10:38:53;;;;;;;;;;;;;;;-142.75;100.00;76290.78;5072082;28;19916;-68
2022/09/27 10:41:21;;;;;;;;;;;;;;;-142.75;100.00;76292.75;5072279;28;19912;-68
2022/09/27 10:43:47;;;;;;;;;;;;;;;-142.75;100.00;76282.91;5072298;28;19912;-68
2022/09/27 10:46:15;;;;;;;;;;;;;;;-142.75;100.00;76298.66;5072166;28;19916;-67
2022/09/27 10:48:41;;;;;;;;;;;;;;;-142.75;100.00;76294.72;5072087;28;19912;-68
2022/09/27 10:51:18;;;;;;;;;;;;;;;-142.75;100.00;76278.97;5072112;28;20358;-66
2022/09/27 10:53:44;;;;;;;;;;;;;;;-142.75;100.00;76282.91;5072065;28;19913;-68
2022/09/27 10:56:19;;;;;;;;;;;;;;;-142.75;100.00;76271.09;5072224;28;19912;-68
2022/09/27 10:58:44;;;;;;;;;;;;;;;-142.75;100.00;76298.66;5071863;28;19921;-68
2022/09/27 11:01:11;;;;;;;;;;;;;;;-142.75;100.00;76280.94;5072140;28;19920;-68
2022/09/27 11:03:38;;;;;;;;;;;;;;;-142.75;100.00;76275.03;5071951;28;19912;-68
2022/09/27 11:06:22;;;;;;;;;;;;;;;-142.75;100.00;76278.97;5069109;28;19912;-67
2022/09/27 11:08:48;;;;;;;;;;;;;;;-142.75;100.00;76294.72;5059190;28;19963;-66
2022/09/27 11:11:13;;;;;;;;;;;;;;;-142.75;100.00;76277.00;5061728;28;19924;-68
2022/09/27 11:13:39;;;;;;;;;;;;;;;-142.75;100.00;76278.97;5070672;28;19999;-67
2022/09/27 11:16:22;;;;;;;;;;;;;;;-142.75;100.00;76269.13;5071904;28;20278;-68
2022/09/27 11:19:00;;;;;;;;;;;;;;;-142.75;100.00;76282.91;5065308;28;19921;-68
2022/09/27 11:21:32;;;;;;;;;;;;;;;-142.75;100.00;76273.06;5054948;28;19982;-68
2022/09/27 11:24:12;;;;;;;;;;;;;;;-142.75;100.00;76259.28;5060256;28;19919;-68
2022/09/27 11:26:44;;;;;;;;;;;;;;;-142.75;100.00;76251.41;5067432;28;19923;-68
2022/09/27 11:29:28;;;;;;;;;;;;;;;-142.75;100.00;76259.28;5069358;28;20313;-68
2022/09/27 11:32:06;;;;;;;;;;;;;;;-142.75;100.00;76269.13;5065413;28;19920;-68
2022/09/27 11:34:34;;;;;;;;;;;;;;;-142.75;100.00;76253.38;5054750;28;19917;-68
2022/09/27 11:37:05;;;;;;;;;;;;;;;-142.75;100.00;76255.34;5061894;28;19995;-69
2022/09/27 11:39:40;;;;;;;;;;;;;;;-142.75;100.00;76233.69;5065335;28;19990;-68
2022/09/27 11:42:13;;;;;;;;;;;;;;;-142.75;100.00;76225.81;5063929;28;20080;-68
2022/09/27 11:44:41;;;;;;;;;;;;;;;-142.75;100.00;76221.88;5061505;28;19921;-69
2022/09/27 11:47:16;;;;;;;;;;;;;;;-142.75;100.00;76204.16;5068133;28;19917;-68
2022/09/27 11:50:01;;;;;;;;;;;;;;;-142.75;100.00;76208.09;5063694;28;20407;-66
2022/09/27 11:52:29;;;;;;;;;;;;;;;-142.75;100.00;76212.03;5066926;28;20386;-68
2022/09/27 11:54:54;;;;;;;;;;;;;;;-142.75;100.00;76219.91;5068441;28;19920;-68
2022/09/27 11:57:42;;;;;;;;;;;;;;;-142.75;100.00;76206.13;5067187;28;19924;-68
2022/09/27 12:00:13;;;;;;;;;;;;;;;-142.75;100.00;76212.03;5057415;28;19922;-68
2022/09/27 12:02:50;;;;;;;;;;;;;;;-142.75;100.00;76192.38;5058012;28;19920;-69
2022/09/27 12:05:22;;;;;;;;;;;;;;;-142.75;100.00;76188.44;5055035;28;19917;-68
2022/09/27 12:07:53;;;;;;;;;;;;;;;-142.75;100.00;76184.50;5057332;28;19924;-68
2022/09/27 12:10:21;;;;;;;;;;;;;;;-142.75;100.00;76160.88;5064574;28;19927;-68
2022/09/27 12:12:50;;;;;;;;;;;;;;;-142.75;100.00;76145.13;5065353;28;19920;-69
2022/09/27 12:15:15;;;;;;;;;;;;;;;-142.75;100.00;76135.28;5054447;28;19963;-68
2022/09/27 12:17:42;;;;;;;;;;;;;;;-142.75;100.00;76125.44;5059542;28;19917;-71
2022/09/27 12:20:23;;;;;;;;;;;;;;;-142.75;100.00;76117.56;5068124;28;20015;-68
2022/09/27 12:23:00;;;;;;;;;;;;;;;-142.75;100.00;76113.63;5062426;28;19916;-68
2022/09/27 12:25:28;;;;;;;;;;;;;;;-142.75;100.00;76109.69;5054634;28;20314;-69
2022/09/27 12:27:59;;;;;;;;;;;;;;;-142.75;100.00;76074.25;5053370;28;19974;-69